Nearby METAR Reports

Aktualna pogoda na lotniskach (dane METAR)

 

EPGD - Gdansk/Rebiechow, Poland
Distance from station: ENE 27mi, 44km
Updated: Fri, 14-Aug-2020 6:30pm PDT
Clear
Clear
 Wind from W
Wind: W 2 mph , 4 km/h
Temperature: 57°F , 14°C
Dew Point: 57°F , 14°C
Humidity: 100%
Barometer: 29.97 inHg , 1015 hPa
Summary: Clear
Visibility: greater than 7 miles , 10 km
2020/08/15 01:30 EPGD 150130Z 27002KT CAVOK 14/14 Q1015
EPSC - Szczecin/Golenio, Poland
Distance from station: WSW 128mi, 205km
Updated: Fri, 14-Aug-2020 6:30pm PDT
Clear
Clear
 Wind from varies
Wind: varies 1 mph , 2 km/h
Temperature: 55°F , 13°C
Dew Point: 54°F , 12°C
Humidity: 94%
Barometer: 29.94 inHg , 1014 hPa
Summary: Clear
Visibility: greater than 7 miles , 10 km
2020/08/15 01:30 EPSC 150130Z VRB01KT CAVOK 13/12 Q1014
 
EPPO - Poznan/Lawica, Poland
Distance from station: SSW 131mi, 210km
Updated: Fri, 14-Aug-2020 6:30pm PDT
Clear
Clear
 Wind from E
Wind: E 12 mph , 19 km/h
Temperature: 70°F , 21°C
Dew Point: 57°F , 14°C
Humidity: 64%
Barometer: 29.91 inHg , 1013 hPa
Summary: Clear
Visibility: greater than 7 miles , 10 km
2020/08/15 01:30 EPPO 150130Z 10010KT CAVOK 21/14 Q1013
EPLL - Lodz/Lublinek, Poland
Distance from station: SSE 184mi, 296km
Updated: Fri, 14-Aug-2020 6:30pm PDT
Clear
Clear
 Wind from N
Wind: N 3 mph , 6 km/h
Temperature: 66°F , 19°C
Dew Point: 54°F , 12°C
Humidity: 64%
Barometer: 29.94 inHg , 1014 hPa
Summary: Clear
Visibility: greater than 7 miles , 10 km
2020/08/15 01:30 EPLL 150130Z 01003KT 330V120 CAVOK 19/12 Q1014
 
EPWA - Warsaw/Okecie, Poland
Distance from station: SE 191mi, 307km
Updated: Fri, 14-Aug-2020 6:30pm PDT
Clear
Clear
 Wind from ESE
Wind: ESE 8 mph , 13 km/h
Temperature: 66°F , 19°C
Dew Point: 54°F , 12°C
Humidity: 64%
Barometer: 29.97 inHg , 1015 hPa
Summary: Clear
Visibility: greater than 7 miles , 10 km
2020/08/15 01:30 EPWA 150130Z 12007KT CAVOK 19/12 Q1015 NOSIG
EPWR - Wroclaw/Strachow, Poland
Distance from station: S 219mi, 352km
Updated: Fri, 14-Aug-2020 6:30pm PDT
Clear
Clear
 Wind from W
Wind: W 6 mph , 9 km/h
Temperature: 68°F , 20°C
Dew Point: 63°F , 17°C
Humidity: 83%
Barometer: 29.91 inHg , 1013 hPa
Summary: Clear
Visibility: greater than 7 miles , 10 km
2020/08/15 01:30 EPWR 150130Z 26005KT CAVOK 20/17 Q1013

Metar display script from Saratoga-Weather.org